sensor_id;sensor_type;location;lat;lon;timestamp;P1;durP1;ratioP1;P2;durP2;ratioP2
8413;SDS011;4244;48.684;9.028;2023-07-31T00:02:03;3.30;;;2.13;;
8413;SDS011;4244;48.684;9.028;2023-07-31T00:04:28;2.73;;;1.87;;
8413;SDS011;4244;48.684;9.028;2023-07-31T00:06:54;2.57;;;1.93;;
8413;SDS011;4244;48.684;9.028;2023-07-31T00:09:20;3.77;;;1.97;;
8413;SDS011;4244;48.684;9.028;2023-07-31T00:11:45;5.13;;;2.53;;
8413;SDS011;4244;48.684;9.028;2023-07-31T00:14:11;3.37;;;2.10;;
8413;SDS011;4244;48.684;9.028;2023-07-31T00:16:36;4.33;;;2.17;;
8413;SDS011;4244;48.684;9.028;2023-07-31T00:19:02;3.23;;;2.40;;
8413;SDS011;4244;48.684;9.028;2023-07-31T00:21:28;3.80;;;2.40;;
8413;SDS011;4244;48.684;9.028;2023-07-31T00:23:53;3.87;;;2.17;;
8413;SDS011;4244;48.684;9.028;2023-07-31T00:26:19;3.07;;;2.77;;
8413;SDS011;4244;48.684;9.028;2023-07-31T00:28:44;4.67;;;2.30;;
8413;SDS011;4244;48.684;9.028;2023-07-31T00:31:10;4.17;;;2.97;;
8413;SDS011;4244;48.684;9.028;2023-07-31T00:33:35;6.13;;;2.50;;
8413;SDS011;4244;48.684;9.028;2023-07-31T00:36:01;3.10;;;2.60;;
8413;SDS011;4244;48.684;9.028;2023-07-31T00:38:27;5.57;;;2.10;;
8413;SDS011;4244;48.684;9.028;2023-07-31T00:40:53;5.17;;;2.80;;
8413;SDS011;4244;48.684;9.028;2023-07-31T00:43:18;5.80;;;2.33;;
8413;SDS011;4244;48.684;9.028;2023-07-31T00:45:44;2.70;;;2.20;;
8413;SDS011;4244;48.684;9.028;2023-07-31T00:48:10;3.53;;;2.30;;
8413;SDS011;4244;48.684;9.028;2023-07-31T00:50:36;3.00;;;2.37;;
8413;SDS011;4244;48.684;9.028;2023-07-31T00:53:02;4.90;;;3.03;;
8413;SDS011;4244;48.684;9.028;2023-07-31T00:55:27;3.70;;;2.40;;
8413;SDS011;4244;48.684;9.028;2023-07-31T00:57:54;4.20;;;3.20;;
8413;SDS011;4244;48.684;9.028;2023-07-31T01:00:21;4.10;;;2.57;;
8413;SDS011;4244;48.684;9.028;2023-07-31T01:02:46;3.10;;;2.27;;
8413;SDS011;4244;48.684;9.028;2023-07-31T01:05:14;3.30;;;2.50;;
8413;SDS011;4244;48.684;9.028;2023-07-31T01:10:26;7.23;;;2.83;;
8413;SDS011;4244;48.684;9.028;2023-07-31T01:12:55;4.13;;;2.30;;
8413;SDS011;4244;48.684;9.028;2023-07-31T01:15:22;4.13;;;3.00;;
8413;SDS011;4244;48.684;9.028;2023-07-31T01:17:48;5.87;;;2.40;;
8413;SDS011;4244;48.684;9.028;2023-07-31T01:20:16;5.30;;;2.67;;
8413;SDS011;4244;48.684;9.028;2023-07-31T01:27:56;3.70;;;2.43;;
8413;SDS011;4244;48.684;9.028;2023-07-31T01:30:32;4.30;;;2.50;;
8413;SDS011;4244;48.684;9.028;2023-07-31T01:33:00;3.00;;;2.30;;
8413;SDS011;4244;48.684;9.028;2023-07-31T01:35:31;10.70;;;2.10;;
8413;SDS011;4244;48.684;9.028;2023-07-31T01:38:00;4.80;;;2.50;;
8413;SDS011;4244;48.684;9.028;2023-07-31T01:40:25;4.00;;;2.77;;
8413;SDS011;4244;48.684;9.028;2023-07-31T01:42:51;8.17;;;2.73;;
8413;SDS011;4244;48.684;9.028;2023-07-31T01:45:16;5.07;;;2.10;;
8413;SDS011;4244;48.684;9.028;2023-07-31T01:47:42;3.17;;;2.60;;
8413;SDS011;4244;48.684;9.028;2023-07-31T01:50:08;4.80;;;3.20;;
8413;SDS011;4244;48.684;9.028;2023-07-31T01:52:34;4.83;;;2.70;;
8413;SDS011;4244;48.684;9.028;2023-07-31T01:54:59;4.50;;;2.90;;
8413;SDS011;4244;48.684;9.028;2023-07-31T01:57:25;5.33;;;2.53;;
8413;SDS011;4244;48.684;9.028;2023-07-31T01:59:51;2.90;;;2.10;;
8413;SDS011;4244;48.684;9.028;2023-07-31T02:02:18;3.03;;;2.10;;
8413;SDS011;4244;48.684;9.028;2023-07-31T02:04:44;5.00;;;2.20;;
8413;SDS011;4244;48.684;9.028;2023-07-31T02:07:10;3.50;;;2.33;;
8413;SDS011;4244;48.684;9.028;2023-07-31T02:09:35;2.80;;;2.50;;
8413;SDS011;4244;48.684;9.028;2023-07-31T02:12:01;3.90;;;2.20;;
8413;SDS011;4244;48.684;9.028;2023-07-31T02:14:27;2.87;;;2.57;;
8413;SDS011;4244;48.684;9.028;2023-07-31T02:16:52;4.90;;;2.23;;
8413;SDS011;4244;48.684;9.028;2023-07-31T02:19:18;3.67;;;2.17;;
8413;SDS011;4244;48.684;9.028;2023-07-31T02:21:44;3.37;;;2.40;;
8413;SDS011;4244;48.684;9.028;2023-07-31T02:24:09;4.10;;;2.43;;
8413;SDS011;4244;48.684;9.028;2023-07-31T02:26:35;4.10;;;2.60;;
8413;SDS011;4244;48.684;9.028;2023-07-31T02:29:01;3.70;;;2.33;;
8413;SDS011;4244;48.684;9.028;2023-07-31T02:31:26;2.80;;;2.07;;
8413;SDS011;4244;48.684;9.028;2023-07-31T02:36:44;5.90;;;2.53;;
8413;SDS011;4244;48.684;9.028;2023-07-31T02:39:09;5.37;;;2.30;;
8413;SDS011;4244;48.684;9.028;2023-07-31T02:41:35;3.57;;;2.40;;
8413;SDS011;4244;48.684;9.028;2023-07-31T02:44:00;4.00;;;2.30;;
8413;SDS011;4244;48.684;9.028;2023-07-31T02:46:26;3.20;;;2.47;;
8413;SDS011;4244;48.684;9.028;2023-07-31T02:48:52;5.93;;;2.27;;
8413;SDS011;4244;48.684;9.028;2023-07-31T02:51:17;5.80;;;3.03;;
8413;SDS011;4244;48.684;9.028;2023-07-31T02:53:43;3.80;;;2.20;;
8413;SDS011;4244;48.684;9.028;2023-07-31T02:56:09;6.43;;;2.60;;
8413;SDS011;4244;48.684;9.028;2023-07-31T02:58:34;3.47;;;2.43;;
8413;SDS011;4244;48.684;9.028;2023-07-31T03:01:00;4.20;;;2.27;;
8413;SDS011;4244;48.684;9.028;2023-07-31T03:03:25;3.20;;;2.10;;
8413;SDS011;4244;48.684;9.028;2023-07-31T03:05:51;7.13;;;2.60;;
8413;SDS011;4244;48.684;9.028;2023-07-31T03:08:17;2.97;;;2.40;;
8413;SDS011;4244;48.684;9.028;2023-07-31T03:10:43;3.77;;;2.27;;
8413;SDS011;4244;48.684;9.028;2023-07-31T03:13:09;3.93;;;2.90;;
8413;SDS011;4244;48.684;9.028;2023-07-31T03:15:35;4.40;;;2.57;;
8413;SDS011;4244;48.684;9.028;2023-07-31T03:18:00;5.23;;;2.70;;
8413;SDS011;4244;48.684;9.028;2023-07-31T03:20:26;4.20;;;2.40;;
8413;SDS011;4244;48.684;9.028;2023-07-31T03:22:52;5.37;;;3.37;;
8413;SDS011;4244;48.684;9.028;2023-07-31T03:25:17;5.20;;;3.00;;
8413;SDS011;4244;48.684;9.028;2023-07-31T03:27:43;5.23;;;2.77;;
8413;SDS011;4244;48.684;9.028;2023-07-31T03:30:09;3.53;;;2.23;;
8413;SDS011;4244;48.684;9.028;2023-07-31T03:32:35;7.90;;;2.80;;
8413;SDS011;4244;48.684;9.028;2023-07-31T03:35:00;5.80;;;2.50;;
8413;SDS011;4244;48.684;9.028;2023-07-31T03:37:26;4.27;;;2.10;;
8413;SDS011;4244;48.684;9.028;2023-07-31T03:39:52;3.13;;;2.63;;
8413;SDS011;4244;48.684;9.028;2023-07-31T03:42:18;5.50;;;2.57;;
8413;SDS011;4244;48.684;9.028;2023-07-31T03:44:43;4.10;;;2.80;;
8413;SDS011;4244;48.684;9.028;2023-07-31T03:47:09;4.67;;;2.60;;
8413;SDS011;4244;48.684;9.028;2023-07-31T03:49:34;3.60;;;2.57;;
8413;SDS011;4244;48.684;9.028;2023-07-31T03:52:00;3.60;;;2.80;;
8413;SDS011;4244;48.684;9.028;2023-07-31T03:54:26;4.33;;;2.70;;
8413;SDS011;4244;48.684;9.028;2023-07-31T03:56:51;4.00;;;2.30;;
8413;SDS011;4244;48.684;9.028;2023-07-31T03:59:17;4.07;;;2.87;;
8413;SDS011;4244;48.684;9.028;2023-07-31T04:01:43;3.70;;;2.40;;
8413;SDS011;4244;48.684;9.028;2023-07-31T04:04:08;4.63;;;2.20;;
8413;SDS011;4244;48.684;9.028;2023-07-31T04:06:34;6.00;;;2.60;;
8413;SDS011;4244;48.684;9.028;2023-07-31T04:08:59;5.20;;;2.50;;
8413;SDS011;4244;48.684;9.028;2023-07-31T04:11:26;3.67;;;2.70;;
8413;SDS011;4244;48.684;9.028;2023-07-31T04:13:52;4.00;;;2.13;;
8413;SDS011;4244;48.684;9.028;2023-07-31T04:16:17;4.40;;;2.60;;
8413;SDS011;4244;48.684;9.028;2023-07-31T04:18:43;3.93;;;2.50;;
8413;SDS011;4244;48.684;9.028;2023-07-31T04:21:08;3.73;;;2.43;;
8413;SDS011;4244;48.684;9.028;2023-07-31T04:23:35;5.00;;;2.60;;
8413;SDS011;4244;48.684;9.028;2023-07-31T04:26:00;3.30;;;2.53;;
8413;SDS011;4244;48.684;9.028;2023-07-31T04:28:26;4.57;;;3.23;;
8413;SDS011;4244;48.684;9.028;2023-07-31T04:30:52;4.73;;;2.80;;
8413;SDS011;4244;48.684;9.028;2023-07-31T04:33:18;2.60;;;2.00;;
8413;SDS011;4244;48.684;9.028;2023-07-31T04:35:49;3.30;;;2.27;;
8413;SDS011;4244;48.684;9.028;2023-07-31T04:38:21;3.40;;;2.40;;
8413;SDS011;4244;48.684;9.028;2023-07-31T04:40:47;4.23;;;2.57;;
8413;SDS011;4244;48.684;9.028;2023-07-31T04:43:13;4.03;;;2.67;;
8413;SDS011;4244;48.684;9.028;2023-07-31T04:45:38;4.93;;;2.47;;
8413;SDS011;4244;48.684;9.028;2023-07-31T04:48:04;3.50;;;2.53;;
8413;SDS011;4244;48.684;9.028;2023-07-31T04:50:29;3.80;;;2.67;;
8413;SDS011;4244;48.684;9.028;2023-07-31T04:52:55;10.90;;;2.50;;
8413;SDS011;4244;48.684;9.028;2023-07-31T04:55:21;4.13;;;2.50;;
8413;SDS011;4244;48.684;9.028;2023-07-31T04:57:47;5.73;;;2.60;;
8413;SDS011;4244;48.684;9.028;2023-07-31T05:00:12;3.90;;;2.60;;
8413;SDS011;4244;48.684;9.028;2023-07-31T05:02:38;4.20;;;2.30;;
8413;SDS011;4244;48.684;9.028;2023-07-31T05:05:04;2.97;;;2.20;;
8413;SDS011;4244;48.684;9.028;2023-07-31T05:07:29;4.17;;;2.40;;
8413;SDS011;4244;48.684;9.028;2023-07-31T05:09:55;3.00;;;2.40;;
8413;SDS011;4244;48.684;9.028;2023-07-31T05:12:20;3.50;;;2.57;;
8413;SDS011;4244;48.684;9.028;2023-07-31T05:14:46;6.63;;;2.67;;
8413;SDS011;4244;48.684;9.028;2023-07-31T05:17:11;3.33;;;2.30;;
8413;SDS011;4244;48.684;9.028;2023-07-31T05:19:37;3.33;;;2.53;;
8413;SDS011;4244;48.684;9.028;2023-07-31T05:22:03;4.00;;;2.23;;
8413;SDS011;4244;48.684;9.028;2023-07-31T05:24:28;6.50;;;2.43;;
8413;SDS011;4244;48.684;9.028;2023-07-31T05:26:54;5.50;;;3.23;;
8413;SDS011;4244;48.684;9.028;2023-07-31T05:29:20;4.17;;;2.53;;
8413;SDS011;4244;48.684;9.028;2023-07-31T05:31:46;3.73;;;2.20;;
8413;SDS011;4244;48.684;9.028;2023-07-31T05:34:12;3.53;;;2.40;;
8413;SDS011;4244;48.684;9.028;2023-07-31T05:36:37;3.83;;;2.10;;
8413;SDS011;4244;48.684;9.028;2023-07-31T05:39:03;4.90;;;3.37;;
8413;SDS011;4244;48.684;9.028;2023-07-31T05:41:32;3.63;;;2.17;;
8413;SDS011;4244;48.684;9.028;2023-07-31T05:43:57;3.20;;;2.57;;
8413;SDS011;4244;48.684;9.028;2023-07-31T05:46:23;3.33;;;2.67;;
8413;SDS011;4244;48.684;9.028;2023-07-31T05:48:48;5.40;;;3.00;;
8413;SDS011;4244;48.684;9.028;2023-07-31T05:51:14;3.30;;;2.80;;
8413;SDS011;4244;48.684;9.028;2023-07-31T05:53:40;4.63;;;2.60;;
8413;SDS011;4244;48.684;9.028;2023-07-31T05:56:05;6.30;;;2.50;;
8413;SDS011;4244;48.684;9.028;2023-07-31T05:58:31;2.53;;;1.90;;
8413;SDS011;4244;48.684;9.028;2023-07-31T06:00:57;3.80;;;2.37;;
8413;SDS011;4244;48.684;9.028;2023-07-31T06:03:22;3.40;;;2.30;;
8413;SDS011;4244;48.684;9.028;2023-07-31T06:05:48;3.00;;;2.33;;
8413;SDS011;4244;48.684;9.028;2023-07-31T06:08:14;3.50;;;2.30;;
8413;SDS011;4244;48.684;9.028;2023-07-31T06:10:39;2.80;;;2.40;;
8413;SDS011;4244;48.684;9.028;2023-07-31T06:13:05;5.40;;;2.70;;
8413;SDS011;4244;48.684;9.028;2023-07-31T06:15:30;4.53;;;2.43;;
8413;SDS011;4244;48.684;9.028;2023-07-31T06:17:56;2.73;;;2.33;;
8413;SDS011;4244;48.684;9.028;2023-07-31T06:20:22;5.40;;;2.43;;
8413;SDS011;4244;48.684;9.028;2023-07-31T06:22:48;3.50;;;2.00;;
8413;SDS011;4244;48.684;9.028;2023-07-31T06:25:13;4.20;;;2.63;;
8413;SDS011;4244;48.684;9.028;2023-07-31T06:27:39;5.70;;;3.50;;
8413;SDS011;4244;48.684;9.028;2023-07-31T06:30:05;3.70;;;2.67;;
8413;SDS011;4244;48.684;9.028;2023-07-31T06:32:31;3.00;;;2.30;;
8413;SDS011;4244;48.684;9.028;2023-07-31T06:34:57;4.20;;;2.30;;
8413;SDS011;4244;48.684;9.028;2023-07-31T06:37:22;3.70;;;2.90;;
8413;SDS011;4244;48.684;9.028;2023-07-31T06:39:48;3.30;;;2.30;;
8413;SDS011;4244;48.684;9.028;2023-07-31T06:42:14;4.20;;;2.23;;
8413;SDS011;4244;48.684;9.028;2023-07-31T06:44:39;5.00;;;2.63;;
8413;SDS011;4244;48.684;9.028;2023-07-31T06:47:05;3.93;;;2.50;;
8413;SDS011;4244;48.684;9.028;2023-07-31T06:49:30;4.70;;;2.87;;
8413;SDS011;4244;48.684;9.028;2023-07-31T06:51:56;3.63;;;2.27;;
8413;SDS011;4244;48.684;9.028;2023-07-31T06:54:22;6.30;;;2.60;;
8413;SDS011;4244;48.684;9.028;2023-07-31T06:56:47;4.97;;;2.60;;
8413;SDS011;4244;48.684;9.028;2023-07-31T06:59:13;5.63;;;2.40;;
8413;SDS011;4244;48.684;9.028;2023-07-31T07:01:38;5.97;;;3.00;;
8413;SDS011;4244;48.684;9.028;2023-07-31T07:04:04;4.10;;;2.90;;
8413;SDS011;4244;48.684;9.028;2023-07-31T07:06:29;4.63;;;2.43;;
8413;SDS011;4244;48.684;9.028;2023-07-31T07:08:55;4.53;;;2.10;;
8413;SDS011;4244;48.684;9.028;2023-07-31T07:11:21;5.30;;;2.50;;
8413;SDS011;4244;48.684;9.028;2023-07-31T07:13:46;4.60;;;2.50;;
8413;SDS011;4244;48.684;9.028;2023-07-31T07:16:12;5.30;;;2.57;;
8413;SDS011;4244;48.684;9.028;2023-07-31T07:18:37;3.70;;;2.30;;
8413;SDS011;4244;48.684;9.028;2023-07-31T07:21:03;3.90;;;2.30;;
8413;SDS011;4244;48.684;9.028;2023-07-31T07:23:28;6.10;;;2.70;;
8413;SDS011;4244;48.684;9.028;2023-07-31T07:25:54;5.00;;;2.20;;
8413;SDS011;4244;48.684;9.028;2023-07-31T07:28:20;4.80;;;2.80;;
8413;SDS011;4244;48.684;9.028;2023-07-31T07:30:50;3.60;;;2.47;;
8413;SDS011;4244;48.684;9.028;2023-07-31T07:33:17;8.37;;;2.73;;
8413;SDS011;4244;48.684;9.028;2023-07-31T07:35:43;5.43;;;2.67;;
8413;SDS011;4244;48.684;9.028;2023-07-31T07:38:08;3.50;;;2.60;;
8413;SDS011;4244;48.684;9.028;2023-07-31T07:40:38;4.60;;;2.57;;
8413;SDS011;4244;48.684;9.028;2023-07-31T07:43:04;4.33;;;2.70;;
8413;SDS011;4244;48.684;9.028;2023-07-31T07:45:29;3.73;;;2.50;;
8413;SDS011;4244;48.684;9.028;2023-07-31T07:47:55;6.00;;;2.67;;
8413;SDS011;4244;48.684;9.028;2023-07-31T07:50:21;4.93;;;3.17;;
8413;SDS011;4244;48.684;9.028;2023-07-31T07:52:46;4.50;;;2.83;;
8413;SDS011;4244;48.684;9.028;2023-07-31T07:55:12;6.83;;;2.97;;
8413;SDS011;4244;48.684;9.028;2023-07-31T07:57:37;6.80;;;2.63;;
8413;SDS011;4244;48.684;9.028;2023-07-31T08:00:04;8.70;;;2.50;;
8413;SDS011;4244;48.684;9.028;2023-07-31T08:02:30;4.73;;;2.93;;
8413;SDS011;4244;48.684;9.028;2023-07-31T08:04:56;3.40;;;2.40;;
8413;SDS011;4244;48.684;9.028;2023-07-31T08:07:21;5.93;;;2.90;;
8413;SDS011;4244;48.684;9.028;2023-07-31T08:09:47;3.27;;;2.70;;
8413;SDS011;4244;48.684;9.028;2023-07-31T08:12:13;3.87;;;2.60;;
8413;SDS011;4244;48.684;9.028;2023-07-31T08:14:38;6.03;;;3.30;;
8413;SDS011;4244;48.684;9.028;2023-07-31T08:17:04;5.50;;;2.70;;
8413;SDS011;4244;48.684;9.028;2023-07-31T08:19:29;7.07;;;3.10;;
8413;SDS011;4244;48.684;9.028;2023-07-31T08:21:55;4.73;;;2.70;;
8413;SDS011;4244;48.684;9.028;2023-07-31T08:24:21;5.03;;;2.33;;
8413;SDS011;4244;48.684;9.028;2023-07-31T08:26:46;7.43;;;2.90;;
8413;SDS011;4244;48.684;9.028;2023-07-31T08:29:12;3.67;;;2.67;;
8413;SDS011;4244;48.684;9.028;2023-07-31T08:31:37;3.53;;;2.40;;
8413;SDS011;4244;48.684;9.028;2023-07-31T08:34:03;4.50;;;2.50;;
8413;SDS011;4244;48.684;9.028;2023-07-31T08:36:29;3.27;;;2.50;;
8413;SDS011;4244;48.684;9.028;2023-07-31T08:38:54;3.90;;;2.37;;
8413;SDS011;4244;48.684;9.028;2023-07-31T08:41:20;5.60;;;3.30;;
8413;SDS011;4244;48.684;9.028;2023-07-31T08:43:45;3.07;;;2.40;;
8413;SDS011;4244;48.684;9.028;2023-07-31T08:46:12;3.40;;;2.60;;
8413;SDS011;4244;48.684;9.028;2023-07-31T08:48:39;5.03;;;3.00;;
8413;SDS011;4244;48.684;9.028;2023-07-31T08:51:07;4.13;;;2.37;;
8413;SDS011;4244;48.684;9.028;2023-07-31T08:53:32;3.70;;;2.43;;
8413;SDS011;4244;48.684;9.028;2023-07-31T08:55:58;3.23;;;2.63;;
8413;SDS011;4244;48.684;9.028;2023-07-31T08:58:24;5.00;;;2.90;;
8413;SDS011;4244;48.684;9.028;2023-07-31T09:00:50;5.37;;;3.13;;
8413;SDS011;4244;48.684;9.028;2023-07-31T09:03:19;6.20;;;2.90;;
8413;SDS011;4244;48.684;9.028;2023-07-31T09:05:47;6.33;;;2.77;;
8413;SDS011;4244;48.684;9.028;2023-07-31T09:08:13;5.97;;;2.83;;
8413;SDS011;4244;48.684;9.028;2023-07-31T09:10:43;5.67;;;2.73;;
8413;SDS011;4244;48.684;9.028;2023-07-31T09:13:10;3.73;;;2.70;;
8413;SDS011;4244;48.684;9.028;2023-07-31T09:15:40;6.70;;;3.00;;
8413;SDS011;4244;48.684;9.028;2023-07-31T09:18:07;5.77;;;2.73;;
8413;SDS011;4244;48.684;9.028;2023-07-31T09:20:33;7.07;;;3.50;;
8413;SDS011;4244;48.684;9.028;2023-07-31T09:23:12;5.10;;;3.17;;
8413;SDS011;4244;48.684;9.028;2023-07-31T09:25:39;6.37;;;3.23;;
8413;SDS011;4244;48.684;9.028;2023-07-31T09:28:06;2.90;;;2.00;;
8413;SDS011;4244;48.684;9.028;2023-07-31T09:31:06;5.13;;;3.13;;
8413;SDS011;4244;48.684;9.028;2023-07-31T09:33:24;3.57;;;2.87;;
8413;SDS011;4244;48.684;9.028;2023-07-31T09:35:50;5.43;;;3.13;;
8413;SDS011;4244;48.684;9.028;2023-07-31T09:38:16;3.80;;;2.60;;
8413;SDS011;4244;48.684;9.028;2023-07-31T09:40:43;5.10;;;2.80;;
8413;SDS011;4244;48.684;9.028;2023-07-31T09:43:13;5.53;;;2.70;;
8413;SDS011;4244;48.684;9.028;2023-07-31T09:45:43;8.13;;;3.60;;
8413;SDS011;4244;48.684;9.028;2023-07-31T09:48:10;5.90;;;3.30;;
8413;SDS011;4244;48.684;9.028;2023-07-31T09:50:37;7.03;;;3.07;;
8413;SDS011;4244;48.684;9.028;2023-07-31T09:53:04;4.20;;;2.40;;
8413;SDS011;4244;48.684;9.028;2023-07-31T09:55:31;8.17;;;3.10;;
8413;SDS011;4244;48.684;9.028;2023-07-31T09:57:57;3.63;;;2.63;;
8413;SDS011;4244;48.684;9.028;2023-07-31T10:00:23;4.90;;;3.03;;
8413;SDS011;4244;48.684;9.028;2023-07-31T10:02:53;4.13;;;3.47;;
8413;SDS011;4244;48.684;9.028;2023-07-31T10:05:19;4.87;;;2.37;;
8413;SDS011;4244;48.684;9.028;2023-07-31T10:07:55;7.40;;;3.00;;
8413;SDS011;4244;48.684;9.028;2023-07-31T10:10:22;6.23;;;3.03;;
8413;SDS011;4244;48.684;9.028;2023-07-31T10:12:52;5.53;;;3.20;;
8413;SDS011;4244;48.684;9.028;2023-07-31T10:15:18;5.70;;;3.03;;
8413;SDS011;4244;48.684;9.028;2023-07-31T10:17:45;3.60;;;2.87;;
8413;SDS011;4244;48.684;9.028;2023-07-31T10:20:12;4.17;;;3.00;;
8413;SDS011;4244;48.684;9.028;2023-07-31T10:22:37;8.90;;;4.13;;
8413;SDS011;4244;48.684;9.028;2023-07-31T10:25:04;4.03;;;3.27;;
8413;SDS011;4244;48.684;9.028;2023-07-31T10:27:30;5.33;;;2.90;;
8413;SDS011;4244;48.684;9.028;2023-07-31T10:29:56;4.37;;;2.80;;
8413;SDS011;4244;48.684;9.028;2023-07-31T10:32:22;5.57;;;3.00;;
8413;SDS011;4244;48.684;9.028;2023-07-31T10:34:49;4.10;;;3.20;;
8413;SDS011;4244;48.684;9.028;2023-07-31T10:40:38;3.70;;;2.90;;
8413;SDS011;4244;48.684;9.028;2023-07-31T10:45:27;6.90;;;3.00;;
8413;SDS011;4244;48.684;9.028;2023-07-31T10:48:01;4.77;;;3.50;;
8413;SDS011;4244;48.684;9.028;2023-07-31T10:50:27;4.87;;;3.10;;
8413;SDS011;4244;48.684;9.028;2023-07-31T10:52:54;5.17;;;3.00;;
8413;SDS011;4244;48.684;9.028;2023-07-31T10:58:06;4.33;;;2.50;;
8413;SDS011;4244;48.684;9.028;2023-07-31T11:00:32;5.57;;;3.10;;
8413;SDS011;4244;48.684;9.028;2023-07-31T11:02:58;7.20;;;3.70;;
8413;SDS011;4244;48.684;9.028;2023-07-31T11:08:42;4.93;;;3.30;;
8413;SDS011;4244;48.684;9.028;2023-07-31T11:11:09;3.97;;;2.93;;
8413;SDS011;4244;48.684;9.028;2023-07-31T11:16:21;3.80;;;3.10;;
8413;SDS011;4244;48.684;9.028;2023-07-31T11:18:48;6.10;;;3.30;;
8413;SDS011;4244;48.684;9.028;2023-07-31T11:21:18;5.10;;;3.53;;
8413;SDS011;4244;48.684;9.028;2023-07-31T11:23:45;4.40;;;3.77;;
8413;SDS011;4244;48.684;9.028;2023-07-31T11:26:16;3.93;;;3.40;;
8413;SDS011;4244;48.684;9.028;2023-07-31T11:28:42;5.70;;;5.13;;
8413;SDS011;4244;48.684;9.028;2023-07-31T11:31:10;4.83;;;2.87;;
8413;SDS011;4244;48.684;9.028;2023-07-31T11:33:36;5.20;;;2.70;;
8413;SDS011;4244;48.684;9.028;2023-07-31T11:36:02;5.63;;;3.07;;
8413;SDS011;4244;48.684;9.028;2023-07-31T11:38:29;7.83;;;4.03;;
8413;SDS011;4244;48.684;9.028;2023-07-31T11:40:56;5.47;;;3.40;;
8413;SDS011;4244;48.684;9.028;2023-07-31T11:43:22;7.03;;;3.43;;
8413;SDS011;4244;48.684;9.028;2023-07-31T11:45:49;5.00;;;2.80;;
8413;SDS011;4244;48.684;9.028;2023-07-31T11:48:35;5.53;;;3.40;;
8413;SDS011;4244;48.684;9.028;2023-07-31T11:51:02;7.97;;;3.70;;
8413;SDS011;4244;48.684;9.028;2023-07-31T11:53:33;6.70;;;3.20;;
8413;SDS011;4244;48.684;9.028;2023-07-31T11:56:00;4.30;;;3.10;;
8413;SDS011;4244;48.684;9.028;2023-07-31T11:58:36;5.70;;;3.20;;
8413;SDS011;4244;48.684;9.028;2023-07-31T12:01:02;5.17;;;3.50;;
8413;SDS011;4244;48.684;9.028;2023-07-31T12:03:28;5.03;;;3.30;;
8413;SDS011;4244;48.684;9.028;2023-07-31T12:05:54;6.60;;;4.20;;
8413;SDS011;4244;48.684;9.028;2023-07-31T12:08:20;5.47;;;3.37;;
8413;SDS011;4244;48.684;9.028;2023-07-31T12:10:46;5.53;;;3.50;;
8413;SDS011;4244;48.684;9.028;2023-07-31T12:13:20;4.93;;;3.30;;
8413;SDS011;4244;48.684;9.028;2023-07-31T12:15:46;4.70;;;2.97;;
8413;SDS011;4244;48.684;9.028;2023-07-31T12:18:13;6.27;;;3.40;;
8413;SDS011;4244;48.684;9.028;2023-07-31T12:20:43;6.87;;;3.80;;
8413;SDS011;4244;48.684;9.028;2023-07-31T12:23:17;7.00;;;3.60;;
8413;SDS011;4244;48.684;9.028;2023-07-31T12:25:44;4.63;;;3.50;;
8413;SDS011;4244;48.684;9.028;2023-07-31T12:28:09;5.93;;;3.70;;
8413;SDS011;4244;48.684;9.028;2023-07-31T12:30:39;6.97;;;3.50;;
8413;SDS011;4244;48.684;9.028;2023-07-31T12:33:05;4.07;;;3.37;;
8413;SDS011;4244;48.684;9.028;2023-07-31T12:35:36;3.87;;;2.70;;
8413;SDS011;4244;48.684;9.028;2023-07-31T12:38:02;5.70;;;3.30;;
8413;SDS011;4244;48.684;9.028;2023-07-31T12:40:28;4.53;;;3.07;;
8413;SDS011;4244;48.684;9.028;2023-07-31T12:42:54;5.37;;;3.27;;
8413;SDS011;4244;48.684;9.028;2023-07-31T12:45:19;3.73;;;3.20;;
8413;SDS011;4244;48.684;9.028;2023-07-31T12:47:46;4.30;;;3.37;;
8413;SDS011;4244;48.684;9.028;2023-07-31T12:50:12;6.03;;;3.87;;
8413;SDS011;4244;48.684;9.028;2023-07-31T12:52:37;3.03;;;2.73;;
8413;SDS011;4244;48.684;9.028;2023-07-31T12:55:03;5.63;;;3.17;;
8413;SDS011;4244;48.684;9.028;2023-07-31T12:57:29;5.20;;;3.80;;
8413;SDS011;4244;48.684;9.028;2023-07-31T12:59:55;4.17;;;3.30;;
8413;SDS011;4244;48.684;9.028;2023-07-31T13:02:21;4.27;;;3.47;;
8413;SDS011;4244;48.684;9.028;2023-07-31T13:04:46;5.50;;;3.73;;
8413;SDS011;4244;48.684;9.028;2023-07-31T13:07:12;4.50;;;3.60;;
8413;SDS011;4244;48.684;9.028;2023-07-31T13:09:38;4.10;;;3.50;;
8413;SDS011;4244;48.684;9.028;2023-07-31T13:12:03;4.10;;;3.03;;
8413;SDS011;4244;48.684;9.028;2023-07-31T13:14:29;4.00;;;3.07;;
8413;SDS011;4244;48.684;9.028;2023-07-31T13:16:55;5.17;;;3.80;;
8413;SDS011;4244;48.684;9.028;2023-07-31T13:19:20;5.30;;;4.00;;
8413;SDS011;4244;48.684;9.028;2023-07-31T13:21:46;4.93;;;3.97;;
8413;SDS011;4244;48.684;9.028;2023-07-31T13:24:11;6.50;;;3.90;;
8413;SDS011;4244;48.684;9.028;2023-07-31T13:26:38;5.60;;;3.80;;
8413;SDS011;4244;48.684;9.028;2023-07-31T13:29:03;5.60;;;3.77;;
8413;SDS011;4244;48.684;9.028;2023-07-31T13:31:29;4.77;;;3.17;;
8413;SDS011;4244;48.684;9.028;2023-07-31T13:33:54;5.80;;;3.90;;
8413;SDS011;4244;48.684;9.028;2023-07-31T13:36:20;6.47;;;3.10;;
8413;SDS011;4244;48.684;9.028;2023-07-31T13:38:45;5.37;;;3.87;;
8413;SDS011;4244;48.684;9.028;2023-07-31T13:41:11;4.30;;;3.30;;
8413;SDS011;4244;48.684;9.028;2023-07-31T13:43:36;3.53;;;3.03;;
8413;SDS011;4244;48.684;9.028;2023-07-31T13:46:02;3.70;;;3.20;;
8413;SDS011;4244;48.684;9.028;2023-07-31T13:48:31;5.33;;;3.20;;
8413;SDS011;4244;48.684;9.028;2023-07-31T13:50:59;5.43;;;3.67;;
8413;SDS011;4244;48.684;9.028;2023-07-31T13:53:25;6.10;;;3.47;;
8413;SDS011;4244;48.684;9.028;2023-07-31T13:55:50;6.90;;;3.40;;
8413;SDS011;4244;48.684;9.028;2023-07-31T13:58:16;3.40;;;3.10;;
8413;SDS011;4244;48.684;9.028;2023-07-31T14:00:42;5.40;;;3.47;;
8413;SDS011;4244;48.684;9.028;2023-07-31T14:03:07;4.17;;;2.97;;
8413;SDS011;4244;48.684;9.028;2023-07-31T14:05:33;5.40;;;3.57;;
8413;SDS011;4244;48.684;9.028;2023-07-31T14:07:59;8.60;;;3.93;;
8413;SDS011;4244;48.684;9.028;2023-07-31T14:10:24;7.27;;;4.60;;
8413;SDS011;4244;48.684;9.028;2023-07-31T14:12:50;5.50;;;3.40;;
8413;SDS011;4244;48.684;9.028;2023-07-31T14:15:15;6.33;;;3.43;;
8413;SDS011;4244;48.684;9.028;2023-07-31T14:17:41;8.60;;;4.53;;
8413;SDS011;4244;48.684;9.028;2023-07-31T14:20:07;4.67;;;3.27;;
8413;SDS011;4244;48.684;9.028;2023-07-31T14:22:33;5.03;;;3.50;;
8413;SDS011;4244;48.684;9.028;2023-07-31T14:24:59;6.70;;;3.40;;
8413;SDS011;4244;48.684;9.028;2023-07-31T14:27:25;6.67;;;3.40;;
8413;SDS011;4244;48.684;9.028;2023-07-31T14:29:50;5.03;;;3.03;;
8413;SDS011;4244;48.684;9.028;2023-07-31T14:32:16;3.60;;;3.07;;
8413;SDS011;4244;48.684;9.028;2023-07-31T14:34:41;4.87;;;2.90;;
8413;SDS011;4244;48.684;9.028;2023-07-31T14:37:07;6.40;;;3.00;;
8413;SDS011;4244;48.684;9.028;2023-07-31T14:39:33;4.60;;;3.47;;
8413;SDS011;4244;48.684;9.028;2023-07-31T14:41:58;4.87;;;3.60;;
8413;SDS011;4244;48.684;9.028;2023-07-31T14:44:24;3.67;;;3.27;;
8413;SDS011;4244;48.684;9.028;2023-07-31T14:46:49;5.87;;;4.13;;
8413;SDS011;4244;48.684;9.028;2023-07-31T14:49:15;3.70;;;2.67;;
8413;SDS011;4244;48.684;9.028;2023-07-31T14:51:41;4.20;;;3.13;;
8413;SDS011;4244;48.684;9.028;2023-07-31T14:54:06;3.90;;;3.10;;
8413;SDS011;4244;48.684;9.028;2023-07-31T14:56:32;5.37;;;3.63;;
8413;SDS011;4244;48.684;9.028;2023-07-31T14:58:57;7.37;;;3.63;;
8413;SDS011;4244;48.684;9.028;2023-07-31T15:01:23;4.97;;;3.67;;
8413;SDS011;4244;48.684;9.028;2023-07-31T15:03:49;4.80;;;3.97;;
8413;SDS011;4244;48.684;9.028;2023-07-31T15:06:14;4.07;;;3.30;;
8413;SDS011;4244;48.684;9.028;2023-07-31T15:08:40;7.70;;;3.40;;
8413;SDS011;4244;48.684;9.028;2023-07-31T15:11:07;4.23;;;3.07;;
8413;SDS011;4244;48.684;9.028;2023-07-31T15:13:32;5.60;;;3.43;;
8413;SDS011;4244;48.684;9.028;2023-07-31T15:15:59;5.40;;;3.60;;
8413;SDS011;4244;48.684;9.028;2023-07-31T15:18:26;5.33;;;3.73;;
8413;SDS011;4244;48.684;9.028;2023-07-31T15:20:53;3.90;;;3.00;;
8413;SDS011;4244;48.684;9.028;2023-07-31T15:23:19;4.83;;;3.47;;
8413;SDS011;4244;48.684;9.028;2023-07-31T15:25:44;5.60;;;3.47;;
8413;SDS011;4244;48.684;9.028;2023-07-31T15:28:10;4.50;;;2.80;;
8413;SDS011;4244;48.684;9.028;2023-07-31T15:30:36;4.83;;;3.53;;
8413;SDS011;4244;48.684;9.028;2023-07-31T15:33:04;6.10;;;3.63;;
8413;SDS011;4244;48.684;9.028;2023-07-31T15:35:30;6.10;;;3.90;;